sensor_id;sensor_type;location;lat;lon;timestamp;temperature;humidity
25046;DHT22;13044;49.304;12.840;2023-12-20T00:02:16;5.20;99.90
25046;DHT22;13044;49.304;12.840;2023-12-20T00:04:43;5.20;99.90
25046;DHT22;13044;49.304;12.840;2023-12-20T00:07:10;5.20;99.90
25046;DHT22;13044;49.304;12.840;2023-12-20T00:09:37;5.20;99.90
25046;DHT22;13044;49.304;12.840;2023-12-20T00:12:04;5.30;99.90
25046;DHT22;13044;49.304;12.840;2023-12-20T00:14:31;5.30;99.90
25046;DHT22;13044;49.304;12.840;2023-12-20T00:16:58;5.30;99.90
25046;DHT22;13044;49.304;12.840;2023-12-20T00:19:25;5.30;99.90
25046;DHT22;13044;49.304;12.840;2023-12-20T00:21:52;5.30;99.90
25046;DHT22;13044;49.304;12.840;2023-12-20T00:24:19;5.30;99.90
25046;DHT22;13044;49.304;12.840;2023-12-20T00:26:47;5.30;99.90
25046;DHT22;13044;49.304;12.840;2023-12-20T00:29:13;5.30;99.90
25046;DHT22;13044;49.304;12.840;2023-12-20T00:31:40;5.30;99.90
25046;DHT22;13044;49.304;12.840;2023-12-20T00:34:07;5.30;99.90
25046;DHT22;13044;49.304;12.840;2023-12-20T00:36:35;5.30;99.90
25046;DHT22;13044;49.304;12.840;2023-12-20T00:39:02;5.30;99.90
25046;DHT22;13044;49.304;12.840;2023-12-20T00:41:29;5.30;99.90
25046;DHT22;13044;49.304;12.840;2023-12-20T00:43:56;5.30;99.90
25046;DHT22;13044;49.304;12.840;2023-12-20T00:46:23;5.30;99.90
25046;DHT22;13044;49.304;12.840;2023-12-20T00:48:50;5.30;99.90
25046;DHT22;13044;49.304;12.840;2023-12-20T00:51:16;5.30;99.90
25046;DHT22;13044;49.304;12.840;2023-12-20T00:53:43;5.30;99.90
25046;DHT22;13044;49.304;12.840;2023-12-20T00:56:10;5.30;99.90
25046;DHT22;13044;49.304;12.840;2023-12-20T00:58:38;5.30;99.90
25046;DHT22;13044;49.304;12.840;2023-12-20T01:01:05;5.30;99.90
25046;DHT22;13044;49.304;12.840;2023-12-20T01:03:32;5.20;99.90
25046;DHT22;13044;49.304;12.840;2023-12-20T01:05:59;5.30;99.90
25046;DHT22;13044;49.304;12.840;2023-12-20T01:08:26;5.20;99.90
25046;DHT22;13044;49.304;12.840;2023-12-20T01:10:53;5.20;99.90
25046;DHT22;13044;49.304;12.840;2023-12-20T01:13:20;5.30;99.90
25046;DHT22;13044;49.304;12.840;2023-12-20T01:15:47;5.30;99.90
25046;DHT22;13044;49.304;12.840;2023-12-20T01:18:14;5.30;99.90
25046;DHT22;13044;49.304;12.840;2023-12-20T01:20:41;5.20;99.90
25046;DHT22;13044;49.304;12.840;2023-12-20T01:23:09;5.30;99.90
25046;DHT22;13044;49.304;12.840;2023-12-20T01:25:37;5.30;99.90
25046;DHT22;13044;49.304;12.840;2023-12-20T01:28:04;5.20;99.90
25046;DHT22;13044;49.304;12.840;2023-12-20T01:30:31;5.20;99.90
25046;DHT22;13044;49.304;12.840;2023-12-20T01:33:00;5.20;99.90
25046;DHT22;13044;49.304;12.840;2023-12-20T01:35:28;5.20;99.90
25046;DHT22;13044;49.304;12.840;2023-12-20T01:37:54;5.20;99.90
25046;DHT22;13044;49.304;12.840;2023-12-20T01:40:24;5.20;99.90
25046;DHT22;13044;49.304;12.840;2023-12-20T01:43:02;5.20;99.90
25046;DHT22;13044;49.304;12.840;2023-12-20T01:45:33;5.20;99.90
25046;DHT22;13044;49.304;12.840;2023-12-20T01:48:00;5.20;99.90
25046;DHT22;13044;49.304;12.840;2023-12-20T01:50:30;5.20;99.90
25046;DHT22;13044;49.304;12.840;2023-12-20T01:53:00;5.20;99.90
25046;DHT22;13044;49.304;12.840;2023-12-20T01:55:31;5.20;99.90
25046;DHT22;13044;49.304;12.840;2023-12-20T01:57:59;5.20;99.90
25046;DHT22;13044;49.304;12.840;2023-12-20T02:00:28;5.20;99.90
25046;DHT22;13044;49.304;12.840;2023-12-20T02:02:55;5.20;99.90
25046;DHT22;13044;49.304;12.840;2023-12-20T02:05:24;5.20;99.90
25046;DHT22;13044;49.304;12.840;2023-12-20T02:07:52;5.10;99.90
25046;DHT22;13044;49.304;12.840;2023-12-20T02:10:19;5.10;99.90
25046;DHT22;13044;49.304;12.840;2023-12-20T02:12:46;5.10;99.90
25046;DHT22;13044;49.304;12.840;2023-12-20T02:15:13;5.10;99.90
25046;DHT22;13044;49.304;12.840;2023-12-20T02:17:40;5.10;99.90
25046;DHT22;13044;49.304;12.840;2023-12-20T02:20:07;5.10;99.90
25046;DHT22;13044;49.304;12.840;2023-12-20T02:22:34;5.10;99.90
25046;DHT22;13044;49.304;12.840;2023-12-20T02:25:01;5.10;99.90
25046;DHT22;13044;49.304;12.840;2023-12-20T02:27:29;5.10;99.90
25046;DHT22;13044;49.304;12.840;2023-12-20T02:29:56;5.10;99.90
25046;DHT22;13044;49.304;12.840;2023-12-20T02:32:24;5.10;99.90
25046;DHT22;13044;49.304;12.840;2023-12-20T02:34:54;5.10;99.90
25046;DHT22;13044;49.304;12.840;2023-12-20T02:37:21;5.10;99.90
25046;DHT22;13044;49.304;12.840;2023-12-20T02:39:48;5.10;99.90
25046;DHT22;13044;49.304;12.840;2023-12-20T02:42:15;5.10;99.90
25046;DHT22;13044;49.304;12.840;2023-12-20T02:44:42;5.10;99.90
25046;DHT22;13044;49.304;12.840;2023-12-20T02:47:09;5.10;99.90
25046;DHT22;13044;49.304;12.840;2023-12-20T02:49:36;5.10;99.90
25046;DHT22;13044;49.304;12.840;2023-12-20T02:52:03;5.10;99.90
25046;DHT22;13044;49.304;12.840;2023-12-20T02:54:30;5.00;99.90
25046;DHT22;13044;49.304;12.840;2023-12-20T02:56:57;5.10;99.90
25046;DHT22;13044;49.304;12.840;2023-12-20T02:59:24;5.00;99.90
25046;DHT22;13044;49.304;12.840;2023-12-20T03:01:51;5.00;99.90
25046;DHT22;13044;49.304;12.840;2023-12-20T03:04:18;5.00;99.90
25046;DHT22;13044;49.304;12.840;2023-12-20T03:06:45;5.00;99.90
25046;DHT22;13044;49.304;12.840;2023-12-20T03:09:12;5.10;99.90
25046;DHT22;13044;49.304;12.840;2023-12-20T03:11:40;5.00;99.90
25046;DHT22;13044;49.304;12.840;2023-12-20T03:14:07;5.10;99.90
25046;DHT22;13044;49.304;12.840;2023-12-20T03:16:33;5.10;99.90
25046;DHT22;13044;49.304;12.840;2023-12-20T03:19:02;5.10;99.90
25046;DHT22;13044;49.304;12.840;2023-12-20T03:21:30;5.00;99.90
25046;DHT22;13044;49.304;12.840;2023-12-20T03:23:57;5.00;99.90
25046;DHT22;13044;49.304;12.840;2023-12-20T03:26:24;5.10;99.90
25046;DHT22;13044;49.304;12.840;2023-12-20T03:28:51;5.10;99.90
25046;DHT22;13044;49.304;12.840;2023-12-20T03:31:18;5.00;99.90
25046;DHT22;13044;49.304;12.840;2023-12-20T03:33:46;5.00;99.90
25046;DHT22;13044;49.304;12.840;2023-12-20T03:36:13;5.00;99.90
25046;DHT22;13044;49.304;12.840;2023-12-20T03:38:40;5.00;99.90
25046;DHT22;13044;49.304;12.840;2023-12-20T03:41:07;5.00;99.90
25046;DHT22;13044;49.304;12.840;2023-12-20T03:43:34;5.00;99.90
25046;DHT22;13044;49.304;12.840;2023-12-20T03:46:01;5.10;99.90
25046;DHT22;13044;49.304;12.840;2023-12-20T03:48:33;5.10;99.90
25046;DHT22;13044;49.304;12.840;2023-12-20T03:51:00;5.10;99.90
25046;DHT22;13044;49.304;12.840;2023-12-20T03:53:27;5.10;99.90
25046;DHT22;13044;49.304;12.840;2023-12-20T03:55:54;5.10;99.90
25046;DHT22;13044;49.304;12.840;2023-12-20T03:58:20;5.10;99.90
25046;DHT22;13044;49.304;12.840;2023-12-20T04:00:47;5.10;99.90
25046;DHT22;13044;49.304;12.840;2023-12-20T04:03:14;5.10;99.90
25046;DHT22;13044;49.304;12.840;2023-12-20T04:05:41;5.10;99.90
25046;DHT22;13044;49.304;12.840;2023-12-20T04:08:09;5.10;99.90
25046;DHT22;13044;49.304;12.840;2023-12-20T04:10:36;5.20;99.90
25046;DHT22;13044;49.304;12.840;2023-12-20T04:13:04;5.20;99.90
25046;DHT22;13044;49.304;12.840;2023-12-20T04:15:31;5.20;99.90
25046;DHT22;13044;49.304;12.840;2023-12-20T04:17:58;5.20;99.90
25046;DHT22;13044;49.304;12.840;2023-12-20T04:20:25;5.20;99.90
25046;DHT22;13044;49.304;12.840;2023-12-20T04:22:52;5.20;99.90
25046;DHT22;13044;49.304;12.840;2023-12-20T04:25:18;5.20;99.90
25046;DHT22;13044;49.304;12.840;2023-12-20T04:27:45;5.20;99.90
25046;DHT22;13044;49.304;12.840;2023-12-20T04:30:13;5.20;99.90
25046;DHT22;13044;49.304;12.840;2023-12-20T04:32:40;5.20;99.90
25046;DHT22;13044;49.304;12.840;2023-12-20T04:35:07;5.20;99.90
25046;DHT22;13044;49.304;12.840;2023-12-20T04:37:35;5.20;99.90
25046;DHT22;13044;49.304;12.840;2023-12-20T04:40:02;5.20;99.90
25046;DHT22;13044;49.304;12.840;2023-12-20T04:42:29;5.20;99.90
25046;DHT22;13044;49.304;12.840;2023-12-20T04:44:56;5.20;99.90
25046;DHT22;13044;49.304;12.840;2023-12-20T04:47:23;5.20;99.90
25046;DHT22;13044;49.304;12.840;2023-12-20T04:49:50;5.20;99.90
25046;DHT22;13044;49.304;12.840;2023-12-20T04:52:17;5.20;99.90
25046;DHT22;13044;49.304;12.840;2023-12-20T04:54:44;5.20;99.90
25046;DHT22;13044;49.304;12.840;2023-12-20T04:57:11;5.10;99.90
25046;DHT22;13044;49.304;12.840;2023-12-20T04:59:38;5.10;99.90
25046;DHT22;13044;49.304;12.840;2023-12-20T05:02:05;5.10;99.90
25046;DHT22;13044;49.304;12.840;2023-12-20T05:04:32;5.10;99.90
25046;DHT22;13044;49.304;12.840;2023-12-20T05:06:59;5.10;99.90
25046;DHT22;13044;49.304;12.840;2023-12-20T05:09:26;5.10;99.90
25046;DHT22;13044;49.304;12.840;2023-12-20T05:11:53;5.10;99.90
25046;DHT22;13044;49.304;12.840;2023-12-20T05:14:19;5.10;99.90
25046;DHT22;13044;49.304;12.840;2023-12-20T05:16:46;5.10;99.90
25046;DHT22;13044;49.304;12.840;2023-12-20T05:19:13;5.00;99.90
25046;DHT22;13044;49.304;12.840;2023-12-20T05:21:40;5.10;99.90
25046;DHT22;13044;49.304;12.840;2023-12-20T05:24:07;5.00;99.90
25046;DHT22;13044;49.304;12.840;2023-12-20T05:26:34;5.10;99.90
25046;DHT22;13044;49.304;12.840;2023-12-20T05:29:01;5.10;99.90
25046;DHT22;13044;49.304;12.840;2023-12-20T05:31:28;5.00;99.90
25046;DHT22;13044;49.304;12.840;2023-12-20T05:33:55;5.10;99.90
25046;DHT22;13044;49.304;12.840;2023-12-20T05:36:22;5.10;99.90
25046;DHT22;13044;49.304;12.840;2023-12-20T05:38:49;5.00;99.90
25046;DHT22;13044;49.304;12.840;2023-12-20T05:41:15;5.00;99.90
25046;DHT22;13044;49.304;12.840;2023-12-20T05:43:42;5.10;99.90
25046;DHT22;13044;49.304;12.840;2023-12-20T05:46:12;5.10;99.90
25046;DHT22;13044;49.304;12.840;2023-12-20T05:48:39;5.10;99.90
25046;DHT22;13044;49.304;12.840;2023-12-20T05:51:06;5.10;99.90
25046;DHT22;13044;49.304;12.840;2023-12-20T05:53:33;5.10;99.90
25046;DHT22;13044;49.304;12.840;2023-12-20T05:56:00;5.10;99.90
25046;DHT22;13044;49.304;12.840;2023-12-20T05:58:27;5.00;99.90
25046;DHT22;13044;49.304;12.840;2023-12-20T06:00:55;5.10;99.90
25046;DHT22;13044;49.304;12.840;2023-12-20T06:03:22;5.10;99.90
25046;DHT22;13044;49.304;12.840;2023-12-20T06:05:50;5.00;99.90
25046;DHT22;13044;49.304;12.840;2023-12-20T06:08:19;5.00;99.90
25046;DHT22;13044;49.304;12.840;2023-12-20T06:10:46;5.00;99.90
25046;DHT22;13044;49.304;12.840;2023-12-20T06:13:13;5.00;99.90
25046;DHT22;13044;49.304;12.840;2023-12-20T06:15:40;5.00;99.90
25046;DHT22;13044;49.304;12.840;2023-12-20T06:18:08;5.00;99.90
25046;DHT22;13044;49.304;12.840;2023-12-20T06:20:36;5.10;99.90
25046;DHT22;13044;49.304;12.840;2023-12-20T06:23:03;5.00;99.90
25046;DHT22;13044;49.304;12.840;2023-12-20T06:25:30;5.00;99.90
25046;DHT22;13044;49.304;12.840;2023-12-20T06:27:57;5.00;99.90
25046;DHT22;13044;49.304;12.840;2023-12-20T06:30:24;5.10;99.90
25046;DHT22;13044;49.304;12.840;2023-12-20T06:32:52;5.10;99.90
25046;DHT22;13044;49.304;12.840;2023-12-20T06:35:19;5.00;99.90
25046;DHT22;13044;49.304;12.840;2023-12-20T06:37:46;5.00;99.90
25046;DHT22;13044;49.304;12.840;2023-12-20T06:40:13;5.00;99.90
25046;DHT22;13044;49.304;12.840;2023-12-20T06:42:44;5.00;99.90
25046;DHT22;13044;49.304;12.840;2023-12-20T06:45:27;5.00;99.90
25046;DHT22;13044;49.304;12.840;2023-12-20T06:47:54;4.90;99.90
25046;DHT22;13044;49.304;12.840;2023-12-20T06:50:21;4.90;99.90
25046;DHT22;13044;49.304;12.840;2023-12-20T06:52:48;4.80;99.90
25046;DHT22;13044;49.304;12.840;2023-12-20T06:55:15;4.90;99.90
25046;DHT22;13044;49.304;12.840;2023-12-20T06:57:42;4.80;99.90
25046;DHT22;13044;49.304;12.840;2023-12-20T07:00:11;4.90;99.90
25046;DHT22;13044;49.304;12.840;2023-12-20T07:02:38;4.90;99.90
25046;DHT22;13044;49.304;12.840;2023-12-20T07:05:05;4.90;99.90
25046;DHT22;13044;49.304;12.840;2023-12-20T07:07:32;5.00;99.90
25046;DHT22;13044;49.304;12.840;2023-12-20T07:09:59;4.90;99.90
25046;DHT22;13044;49.304;12.840;2023-12-20T07:12:26;4.90;99.90
25046;DHT22;13044;49.304;12.840;2023-12-20T07:14:53;5.00;99.90
25046;DHT22;13044;49.304;12.840;2023-12-20T07:17:20;4.90;99.90
25046;DHT22;13044;49.304;12.840;2023-12-20T07:19:48;4.90;99.90
25046;DHT22;13044;49.304;12.840;2023-12-20T07:22:15;4.90;99.90
25046;DHT22;13044;49.304;12.840;2023-12-20T07:24:41;4.90;99.90
25046;DHT22;13044;49.304;12.840;2023-12-20T07:27:08;4.90;99.90
25046;DHT22;13044;49.304;12.840;2023-12-20T07:29:35;5.00;99.90
25046;DHT22;13044;49.304;12.840;2023-12-20T07:32:03;4.90;99.90
25046;DHT22;13044;49.304;12.840;2023-12-20T07:34:30;4.90;99.90
25046;DHT22;13044;49.304;12.840;2023-12-20T07:36:59;4.90;99.90
25046;DHT22;13044;49.304;12.840;2023-12-20T07:39:25;4.90;99.90
25046;DHT22;13044;49.304;12.840;2023-12-20T07:41:52;4.90;99.90
25046;DHT22;13044;49.304;12.840;2023-12-20T07:44:19;4.90;99.90
25046;DHT22;13044;49.304;12.840;2023-12-20T07:46:46;4.90;99.90
25046;DHT22;13044;49.304;12.840;2023-12-20T07:49:14;4.90;99.90
25046;DHT22;13044;49.304;12.840;2023-12-20T07:51:41;4.90;99.90
25046;DHT22;13044;49.304;12.840;2023-12-20T07:54:08;4.90;99.90
25046;DHT22;13044;49.304;12.840;2023-12-20T07:56:35;4.90;99.90
25046;DHT22;13044;49.304;12.840;2023-12-20T07:59:02;4.90;99.90
25046;DHT22;13044;49.304;12.840;2023-12-20T08:01:30;4.90;99.90
25046;DHT22;13044;49.304;12.840;2023-12-20T08:03:57;4.90;99.90
25046;DHT22;13044;49.304;12.840;2023-12-20T08:06:24;4.90;99.90
25046;DHT22;13044;49.304;12.840;2023-12-20T08:08:51;4.90;99.90
25046;DHT22;13044;49.304;12.840;2023-12-20T08:11:28;4.90;99.90
25046;DHT22;13044;49.304;12.840;2023-12-20T08:13:56;4.90;99.90
25046;DHT22;13044;49.304;12.840;2023-12-20T08:16:23;4.80;99.90
25046;DHT22;13044;49.304;12.840;2023-12-20T08:18:50;4.90;99.90
25046;DHT22;13044;49.304;12.840;2023-12-20T08:21:17;4.90;99.90
25046;DHT22;13044;49.304;12.840;2023-12-20T08:23:46;4.90;99.90
25046;DHT22;13044;49.304;12.840;2023-12-20T08:26:14;4.90;99.90
25046;DHT22;13044;49.304;12.840;2023-12-20T08:28:41;4.90;99.90
25046;DHT22;13044;49.304;12.840;2023-12-20T08:31:14;5.00;99.90
25046;DHT22;13044;49.304;12.840;2023-12-20T08:33:43;4.90;99.90
25046;DHT22;13044;49.304;12.840;2023-12-20T08:36:11;4.90;99.90
25046;DHT22;13044;49.304;12.840;2023-12-20T08:38:39;4.90;99.90
25046;DHT22;13044;49.304;12.840;2023-12-20T08:41:06;4.90;99.90
25046;DHT22;13044;49.304;12.840;2023-12-20T08:43:36;4.90;99.90
25046;DHT22;13044;49.304;12.840;2023-12-20T08:46:03;4.90;99.90
25046;DHT22;13044;49.304;12.840;2023-12-20T08:48:30;4.90;99.90
25046;DHT22;13044;49.304;12.840;2023-12-20T08:50:57;4.90;99.90
25046;DHT22;13044;49.304;12.840;2023-12-20T08:53:24;5.00;99.90
25046;DHT22;13044;49.304;12.840;2023-12-20T08:55:51;4.90;99.90
25046;DHT22;13044;49.304;12.840;2023-12-20T08:58:18;4.90;99.90
25046;DHT22;13044;49.304;12.840;2023-12-20T09:00:45;5.00;99.90
25046;DHT22;13044;49.304;12.840;2023-12-20T09:03:12;5.00;99.90
25046;DHT22;13044;49.304;12.840;2023-12-20T09:05:39;5.00;99.90
25046;DHT22;13044;49.304;12.840;2023-12-20T09:08:06;5.00;99.90
25046;DHT22;13044;49.304;12.840;2023-12-20T09:10:34;5.00;99.90
25046;DHT22;13044;49.304;12.840;2023-12-20T09:13:01;5.00;99.90
25046;DHT22;13044;49.304;12.840;2023-12-20T09:15:29;5.00;99.90
25046;DHT22;13044;49.304;12.840;2023-12-20T09:17:59;5.10;99.90
25046;DHT22;13044;49.304;12.840;2023-12-20T09:20:26;5.00;99.90
25046;DHT22;13044;49.304;12.840;2023-12-20T09:22:54;5.10;99.90
25046;DHT22;13044;49.304;12.840;2023-12-20T09:25:20;5.10;99.90
25046;DHT22;13044;49.304;12.840;2023-12-20T09:27:49;5.10;99.90
25046;DHT22;13044;49.304;12.840;2023-12-20T09:30:16;5.10;99.90
25046;DHT22;13044;49.304;12.840;2023-12-20T09:32:53;5.10;99.90
25046;DHT22;13044;49.304;12.840;2023-12-20T09:35:21;5.10;99.90
25046;DHT22;13044;49.304;12.840;2023-12-20T09:37:49;5.20;99.90
25046;DHT22;13044;49.304;12.840;2023-12-20T09:40:18;5.20;99.90
25046;DHT22;13044;49.304;12.840;2023-12-20T09:43:10;5.20;99.90
25046;DHT22;13044;49.304;12.840;2023-12-20T09:45:39;5.20;99.90
25046;DHT22;13044;49.304;12.840;2023-12-20T09:48:07;5.20;99.90
25046;DHT22;13044;49.304;12.840;2023-12-20T09:50:37;5.20;99.90
25046;DHT22;13044;49.304;12.840;2023-12-20T09:53:04;5.20;99.90
25046;DHT22;13044;49.304;12.840;2023-12-20T09:55:36;5.20;99.90
25046;DHT22;13044;49.304;12.840;2023-12-20T09:58:03;5.30;99.90
25046;DHT22;13044;49.304;12.840;2023-12-20T10:00:30;5.20;99.90
25046;DHT22;13044;49.304;12.840;2023-12-20T10:02:58;5.30;99.90
25046;DHT22;13044;49.304;12.840;2023-12-20T10:05:34;5.30;99.90
25046;DHT22;13044;49.304;12.840;2023-12-20T10:08:01;5.30;99.90
25046;DHT22;13044;49.304;12.840;2023-12-20T10:10:30;5.20;99.90
25046;DHT22;13044;49.304;12.840;2023-12-20T10:13:11;5.30;99.90
25046;DHT22;13044;49.304;12.840;2023-12-20T10:15:40;5.30;99.90
25046;DHT22;13044;49.304;12.840;2023-12-20T10:18:08;5.30;99.90
25046;DHT22;13044;49.304;12.840;2023-12-20T10:20:35;5.40;99.90
25046;DHT22;13044;49.304;12.840;2023-12-20T10:23:03;5.40;99.90
25046;DHT22;13044;49.304;12.840;2023-12-20T10:25:30;5.30;99.90
25046;DHT22;13044;49.304;12.840;2023-12-20T10:28:15;5.40;99.90
25046;DHT22;13044;49.304;12.840;2023-12-20T10:30:47;5.40;99.90
25046;DHT22;13044;49.304;12.840;2023-12-20T10:33:28;5.50;99.90
25046;DHT22;13044;49.304;12.840;2023-12-20T10:35:56;5.50;99.90
25046;DHT22;13044;49.304;12.840;2023-12-20T10:38:23;5.50;99.90
25046;DHT22;13044;49.304;12.840;2023-12-20T10:40:54;5.50;99.90
25046;DHT22;13044;49.304;12.840;2023-12-20T10:43:26;5.60;99.90
25046;DHT22;13044;49.304;12.840;2023-12-20T10:45:56;5.60;99.90
25046;DHT22;13044;49.304;12.840;2023-12-20T10:48:24;5.60;99.90
25046;DHT22;13044;49.304;12.840;2023-12-20T10:50:56;5.60;99.90
25046;DHT22;13044;49.304;12.840;2023-12-20T10:53:24;5.60;99.90
25046;DHT22;13044;49.304;12.840;2023-12-20T10:55:55;5.70;99.90
25046;DHT22;13044;49.304;12.840;2023-12-20T10:58:26;5.70;99.90
25046;DHT22;13044;49.304;12.840;2023-12-20T11:01:00;5.70;99.90
25046;DHT22;13044;49.304;12.840;2023-12-20T11:03:35;5.80;99.90
25046;DHT22;13044;49.304;12.840;2023-12-20T11:06:10;5.80;99.90
25046;DHT22;13044;49.304;12.840;2023-12-20T11:08:57;5.90;99.90
25046;DHT22;13044;49.304;12.840;2023-12-20T11:14:51;5.90;99.90
25046;DHT22;13044;49.304;12.840;2023-12-20T11:17:17;5.90;99.90
25046;DHT22;13044;49.304;12.840;2023-12-20T11:22:29;6.00;99.90
25046;DHT22;13044;49.304;12.840;2023-12-20T11:25:06;6.10;99.90
25046;DHT22;13044;49.304;12.840;2023-12-20T11:27:41;6.20;99.90
25046;DHT22;13044;49.304;12.840;2023-12-20T11:30:11;6.30;99.90
25046;DHT22;13044;49.304;12.840;2023-12-20T11:32:40;6.30;99.90
25046;DHT22;13044;49.304;12.840;2023-12-20T11:37:38;6.30;99.90
25046;DHT22;13044;49.304;12.840;2023-12-20T11:40:17;6.20;99.90
25046;DHT22;13044;49.304;12.840;2023-12-20T11:42:48;6.20;99.90
25046;DHT22;13044;49.304;12.840;2023-12-20T11:45:20;6.10;99.90
25046;DHT22;13044;49.304;12.840;2023-12-20T11:47:50;6.10;99.90
25046;DHT22;13044;49.304;12.840;2023-12-20T11:50:18;6.20;99.90
25046;DHT22;13044;49.304;12.840;2023-12-20T11:52:47;6.10;99.90
25046;DHT22;13044;49.304;12.840;2023-12-20T11:55:14;6.10;99.90
25046;DHT22;13044;49.304;12.840;2023-12-20T11:57:42;6.20;99.90
25046;DHT22;13044;49.304;12.840;2023-12-20T12:00:10;6.20;99.90
25046;DHT22;13044;49.304;12.840;2023-12-20T12:02:37;6.10;99.90
25046;DHT22;13044;49.304;12.840;2023-12-20T12:05:05;6.10;99.90
25046;DHT22;13044;49.304;12.840;2023-12-20T12:07:34;6.20;99.90
25046;DHT22;13044;49.304;12.840;2023-12-20T12:10:02;6.10;99.90
25046;DHT22;13044;49.304;12.840;2023-12-20T12:12:30;6.10;99.90
25046;DHT22;13044;49.304;12.840;2023-12-20T12:14:59;6.10;99.90
25046;DHT22;13044;49.304;12.840;2023-12-20T12:17:26;6.20;99.90
25046;DHT22;13044;49.304;12.840;2023-12-20T12:20:04;6.10;99.90
25046;DHT22;13044;49.304;12.840;2023-12-20T12:22:33;6.20;99.90
25046;DHT22;13044;49.304;12.840;2023-12-20T12:25:10;6.20;99.90
25046;DHT22;13044;49.304;12.840;2023-12-20T12:27:41;6.20;99.90
25046;DHT22;13044;49.304;12.840;2023-12-20T12:30:10;6.20;99.90
25046;DHT22;13044;49.304;12.840;2023-12-20T12:32:39;6.30;99.90
25046;DHT22;13044;49.304;12.840;2023-12-20T12:35:07;6.20;99.90
25046;DHT22;13044;49.304;12.840;2023-12-20T12:37:40;6.20;99.90
25046;DHT22;13044;49.304;12.840;2023-12-20T12:40:12;6.10;99.90
25046;DHT22;13044;49.304;12.840;2023-12-20T12:42:41;6.10;99.90
25046;DHT22;13044;49.304;12.840;2023-12-20T12:45:10;6.10;99.90
25046;DHT22;13044;49.304;12.840;2023-12-20T12:47:40;6.10;99.90
25046;DHT22;13044;49.304;12.840;2023-12-20T12:50:08;6.10;99.90
25046;DHT22;13044;49.304;12.840;2023-12-20T12:52:35;6.10;99.90
25046;DHT22;13044;49.304;12.840;2023-12-20T12:55:02;6.10;99.90
25046;DHT22;13044;49.304;12.840;2023-12-20T12:57:32;6.10;99.90
25046;DHT22;13044;49.304;12.840;2023-12-20T13:00:00;6.10;99.90
25046;DHT22;13044;49.304;12.840;2023-12-20T13:02:27;6.10;99.90
25046;DHT22;13044;49.304;12.840;2023-12-20T13:04:53;6.00;99.90
25046;DHT22;13044;49.304;12.840;2023-12-20T13:07:20;6.00;99.90
25046;DHT22;13044;49.304;12.840;2023-12-20T13:09:47;6.10;99.90
25046;DHT22;13044;49.304;12.840;2023-12-20T13:12:15;6.30;99.90
25046;DHT22;13044;49.304;12.840;2023-12-20T13:14:42;6.50;99.90
25046;DHT22;13044;49.304;12.840;2023-12-20T13:17:08;6.60;99.90
25046;DHT22;13044;49.304;12.840;2023-12-20T13:19:35;6.70;99.90
25046;DHT22;13044;49.304;12.840;2023-12-20T13:22:03;6.80;99.90
25046;DHT22;13044;49.304;12.840;2023-12-20T13:24:30;6.70;99.90
25046;DHT22;13044;49.304;12.840;2023-12-20T13:26:58;6.60;99.90
25046;DHT22;13044;49.304;12.840;2023-12-20T13:29:25;6.60;99.90
25046;DHT22;13044;49.304;12.840;2023-12-20T13:31:53;6.50;99.90
25046;DHT22;13044;49.304;12.840;2023-12-20T13:34:21;6.40;99.90
25046;DHT22;13044;49.304;12.840;2023-12-20T13:36:48;6.40;99.90
25046;DHT22;13044;49.304;12.840;2023-12-20T13:39:17;6.30;99.90
25046;DHT22;13044;49.304;12.840;2023-12-20T13:41:44;6.30;99.90
25046;DHT22;13044;49.304;12.840;2023-12-20T13:44:11;6.20;99.90
25046;DHT22;13044;49.304;12.840;2023-12-20T13:46:40;6.20;99.90
25046;DHT22;13044;49.304;12.840;2023-12-20T13:49:07;6.30;99.90
25046;DHT22;13044;49.304;12.840;2023-12-20T13:51:35;6.20;99.90
25046;DHT22;13044;49.304;12.840;2023-12-20T13:54:02;6.20;99.90
25046;DHT22;13044;49.304;12.840;2023-12-20T13:56:29;6.10;99.90
25046;DHT22;13044;49.304;12.840;2023-12-20T13:58:56;6.10;99.90
25046;DHT22;13044;49.304;12.840;2023-12-20T14:01:23;6.10;99.90
25046;DHT22;13044;49.304;12.840;2023-12-20T14:03:51;6.10;99.90
25046;DHT22;13044;49.304;12.840;2023-12-20T14:06:18;6.10;99.90
25046;DHT22;13044;49.304;12.840;2023-12-20T14:08:44;6.00;99.90
25046;DHT22;13044;49.304;12.840;2023-12-20T14:11:11;6.00;99.90
25046;DHT22;13044;49.304;12.840;2023-12-20T14:13:40;5.90;99.90
25046;DHT22;13044;49.304;12.840;2023-12-20T14:16:06;5.90;99.90
25046;DHT22;13044;49.304;12.840;2023-12-20T14:18:33;5.90;99.90
25046;DHT22;13044;49.304;12.840;2023-12-20T14:21:00;5.90;99.90
25046;DHT22;13044;49.304;12.840;2023-12-20T14:23:27;5.80;99.90
25046;DHT22;13044;49.304;12.840;2023-12-20T14:25:54;5.80;99.90
25046;DHT22;13044;49.304;12.840;2023-12-20T14:28:22;5.80;99.90
25046;DHT22;13044;49.304;12.840;2023-12-20T14:30:49;5.80;99.90
25046;DHT22;13044;49.304;12.840;2023-12-20T14:33:17;5.80;99.90
25046;DHT22;13044;49.304;12.840;2023-12-20T14:35:46;5.70;99.90
25046;DHT22;13044;49.304;12.840;2023-12-20T14:38:13;5.70;99.90
25046;DHT22;13044;49.304;12.840;2023-12-20T14:40:41;5.60;99.90
25046;DHT22;13044;49.304;12.840;2023-12-20T14:43:08;5.60;99.90
25046;DHT22;13044;49.304;12.840;2023-12-20T14:45:35;5.60;99.90
25046;DHT22;13044;49.304;12.840;2023-12-20T14:48:02;5.60;99.90
25046;DHT22;13044;49.304;12.840;2023-12-20T14:50:29;5.60;99.90
25046;DHT22;13044;49.304;12.840;2023-12-20T14:52:56;5.60;99.90
25046;DHT22;13044;49.304;12.840;2023-12-20T14:55:23;5.50;99.90
25046;DHT22;13044;49.304;12.840;2023-12-20T14:57:53;5.50;99.90
25046;DHT22;13044;49.304;12.840;2023-12-20T15:00:20;5.60;99.90
25046;DHT22;13044;49.304;12.840;2023-12-20T15:02:47;5.50;99.90
25046;DHT22;13044;49.304;12.840;2023-12-20T15:05:14;5.50;99.90
25046;DHT22;13044;49.304;12.840;2023-12-20T15:07:42;5.50;99.90
25046;DHT22;13044;49.304;12.840;2023-12-20T15:10:10;5.50;99.90
25046;DHT22;13044;49.304;12.840;2023-12-20T15:12:37;5.40;99.90
25046;DHT22;13044;49.304;12.840;2023-12-20T15:15:04;5.40;99.90
25046;DHT22;13044;49.304;12.840;2023-12-20T15:17:31;5.40;99.90
25046;DHT22;13044;49.304;12.840;2023-12-20T15:19:58;5.40;99.90
25046;DHT22;13044;49.304;12.840;2023-12-20T15:22:25;5.40;99.90
25046;DHT22;13044;49.304;12.840;2023-12-20T15:24:53;5.40;99.90
25046;DHT22;13044;49.304;12.840;2023-12-20T15:27:21;5.30;99.90
25046;DHT22;13044;49.304;12.840;2023-12-20T15:29:51;5.30;99.90
25046;DHT22;13044;49.304;12.840;2023-12-20T15:32:18;5.30;99.90
25046;DHT22;13044;49.304;12.840;2023-12-20T15:34:49;5.30;99.90
25046;DHT22;13044;49.304;12.840;2023-12-20T15:37:16;5.30;99.90
25046;DHT22;13044;49.304;12.840;2023-12-20T15:39:42;5.30;99.90
25046;DHT22;13044;49.304;12.840;2023-12-20T15:42:09;5.30;99.90
25046;DHT22;13044;49.304;12.840;2023-12-20T15:44:36;5.30;99.90